Time;durP1;ratioP1;P1;durP2;ratioP2;P2;SDS_P1;SDS_P2;PMS_P1;PMS_P2;Temp;Humidity;BMP_temperature;BMP_pressure;BME280_temperature;BME280_humidity;BME280_pressure;Samples;Min_cycle;Max_cycle;Signal;HPM_P1;HPM_P2
2024/03/07 00:02:19;;;;;;;100.38;65.88;;;18.80;76.60;;;;;;5053103;28;20035;-65
2024/03/07 00:04:45;;;;;;;99.30;66.38;;;18.80;76.60;;;;;;5053385;28;20115;-65
2024/03/07 00:07:11;;;;;;;97.28;66.13;;;18.80;76.60;;;;;;5035722;28;20404;-66
2024/03/07 00:09:36;;;;;;;96.10;65.25;;;18.80;76.60;;;;;;5053407;28;20484;-65
2024/03/07 00:12:03;;;;;;;97.47;65.43;;;18.80;76.60;;;;;;5052373;28;20025;-65
2024/03/07 00:14:28;;;;;;;92.63;61.75;;;18.80;76.70;;;;;;5053284;28;20025;-65
2024/03/07 00:16:59;;;;;;;88.88;61.35;;;18.90;76.70;;;;;;5053119;28;20095;-64
2024/03/07 00:19:26;;;;;;;91.15;61.22;;;18.90;76.60;;;;;;5053164;28;20016;-65
2024/03/07 00:21:58;;;;;;;92.20;64.47;;;18.80;76.60;;;;;;5052667;28;20412;-65
2024/03/07 00:24:24;;;;;;;88.13;60.38;;;18.80;76.70;;;;;;5052957;28;20012;-66
2024/03/07 00:26:51;;;;;;;87.70;59.22;;;18.80;76.70;;;;;;5053177;28;20104;-65
2024/03/07 00:29:20;;;;;;;89.70;62.15;;;18.80;76.70;;;;;;5052928;28;20029;-65
2024/03/07 00:31:46;;;;;;;88.60;59.50;;;18.80;76.70;;;;;;5052066;28;20526;-65
2024/03/07 00:34:19;;;;;;;88.55;59.67;;;18.80;76.70;;;;;;5053039;28;20070;-65
2024/03/07 00:36:46;;;;;;;85.70;59.97;;;18.80;76.80;;;;;;5034981;28;20032;-65
2024/03/07 00:39:11;;;;;;;85.18;59.28;;;18.80;76.90;;;;;;5052833;28;20100;-65
2024/03/07 00:41:41;;;;;;;90.30;61.97;;;18.80;76.90;;;;;;5051969;28;20112;-65
2024/03/07 00:44:09;;;;;;;86.88;60.05;;;18.80;76.90;;;;;;5052592;28;20147;-66
2024/03/07 00:46:38;;;;;;;85.50;58.70;;;18.80;77.00;;;;;;5052537;28;20393;-65
2024/03/07 00:49:04;;;;;;;81.97;57.88;;;18.80;77.20;;;;;;5052737;28;20025;-65
2024/03/07 00:51:30;;;;;;;90.30;57.83;;;18.80;77.10;;;;;;5051701;28;20032;-65
2024/03/07 00:53:56;;;;;;;84.07;58.17;;;18.80;77.20;;;;;;5052269;28;20029;-66
2024/03/07 00:56:22;;;;;;;82.07;56.25;;;18.80;77.30;;;;;;5051518;28;20033;-65
2024/03/07 00:58:48;;;;;;;84.68;56.55;;;18.80;77.20;;;;;;5052143;28;20473;-64
2024/03/07 01:01:15;;;;;;;76.47;53.90;;;18.80;77.20;;;;;;5051285;28;20017;-64
2024/03/07 01:03:41;;;;;;;80.50;56.00;;;18.80;77.30;;;;;;5052336;28;20021;-64
2024/03/07 01:06:06;;;;;;;84.70;55.40;;;18.80;77.40;;;;;;5052015;28;20431;-64
2024/03/07 01:08:32;;;;;;;78.85;55.63;;;18.80;77.40;;;;;;5052091;28;20496;-65
2024/03/07 01:10:58;;;;;;;78.38;56.80;;;18.80;77.40;;;;;;5051250;28;20085;-65
2024/03/07 01:13:24;;;;;;;78.05;52.03;;;18.80;77.40;;;;;;5051928;28;20032;-65
2024/03/07 01:15:49;;;;;;;79.38;53.17;;;18.80;77.30;;;;;;5051755;28;20032;-64
2024/03/07 01:18:16;;;;;;;78.00;53.00;;;18.80;77.30;;;;;;5052159;28;20104;-65
2024/03/07 01:20:42;;;;;;;74.85;52.80;;;18.80;77.40;;;;;;5050966;28;20036;-64
2024/03/07 01:23:08;;;;;;;77.78;51.33;;;18.80;77.40;;;;;;5033954;28;20017;-65
2024/03/07 01:25:34;;;;;;;79.07;53.20;;;18.80;77.40;;;;;;5051557;28;20029;-63
2024/03/07 01:28:00;;;;;;;83.05;51.78;;;18.80;77.50;;;;;;5051519;28;20047;-64
2024/03/07 01:30:28;;;;;;;76.55;51.75;;;18.80;77.40;;;;;;5051301;28;20028;-64
2024/03/07 01:32:54;;;;;;;73.80;51.38;;;18.80;77.40;;;;;;5051247;28;20033;-65
2024/03/07 01:35:20;;;;;;;72.22;51.22;;;18.80;77.50;;;;;;5051623;28;20045;-65
2024/03/07 01:37:46;;;;;;;71.72;50.05;;;18.80;77.40;;;;;;5051572;28;20104;-65
2024/03/07 01:40:13;;;;;;;69.43;49.40;;;18.80;77.40;;;;;;5051162;28;20176;-65
2024/03/07 01:42:38;;;;;;;75.30;50.42;;;18.70;77.30;;;;;;5050986;28;20025;-65
2024/03/07 01:45:04;;;;;;;70.15;48.90;;;18.80;77.50;;;;;;5051450;28;20029;-65
2024/03/07 01:47:30;;;;;;;68.28;47.92;;;18.70;77.40;;;;;;5051408;28;20021;-65
2024/03/07 01:49:56;;;;;;;71.63;47.97;;;18.80;77.50;;;;;;5051073;28;20066;-65
2024/03/07 01:52:22;;;;;;;71.35;49.22;;;18.70;77.50;;;;;;5050651;28;20017;-64
2024/03/07 01:54:48;;;;;;;67.85;47.00;;;18.70;77.60;;;;;;5050934;28;20025;-65
2024/03/07 01:57:16;;;;;;;70.03;47.67;;;18.80;77.70;;;;;;5050910;28;20562;-65
2024/03/07 01:59:43;;;;;;;68.35;48.65;;;18.70;77.80;;;;;;5051331;28;20021;-65
2024/03/07 02:02:09;;;;;;;66.50;45.90;;;18.80;77.90;;;;;;5050461;28;20055;-65
2024/03/07 02:04:34;;;;;;;63.92;45.83;;;18.80;77.90;;;;;;5050638;28;20044;-65
2024/03/07 02:07:00;;;;;;;66.85;46.00;;;18.80;77.80;;;;;;5051089;28;20025;-65
2024/03/07 02:09:26;;;;;;;75.03;47.25;;;18.80;77.90;;;;;;5049916;28;20017;-64
2024/03/07 02:11:51;;;;;;;64.47;45.58;;;18.80;77.90;;;;;;5050063;28;20478;-64
2024/03/07 02:14:17;;;;;;;66.47;45.72;;;18.70;78.00;;;;;;5051126;28;20021;-64
2024/03/07 02:16:43;;;;;;;67.28;45.80;;;18.70;78.20;;;;;;5050713;28;20158;-65
2024/03/07 02:19:14;;;;;;;65.65;44.67;;;18.70;78.20;;;;;;5050939;28;20120;-65
2024/03/07 02:21:40;;;;;;;63.53;44.28;;;18.70;78.10;;;;;;5049923;28;20040;-63
2024/03/07 02:24:05;;;;;;;60.25;42.80;;;18.70;78.30;;;;;;5050612;28;20031;-65
2024/03/07 02:26:31;;;;;;;63.67;43.97;;;18.80;78.40;;;;;;5050835;28;20032;-65
2024/03/07 02:28:57;;;;;;;63.42;44.80;;;18.70;78.40;;;;;;5050701;28;20021;-66
2024/03/07 02:31:34;;;;;;;62.30;42.95;;;18.70;78.40;;;;;;5049962;28;20017;-64
2024/03/07 02:34:01;;;;;;;64.65;44.90;;;18.70;78.40;;;;;;5050756;28;20033;-65
2024/03/07 02:36:27;;;;;;;62.95;42.10;;;18.70;78.70;;;;;;5050285;28;20021;-65
2024/03/07 02:38:53;;;;;;;61.80;42.85;;;18.70;78.50;;;;;;5050482;28;20029;-65
2024/03/07 02:41:18;;;;;;;60.08;42.10;;;18.70;78.60;;;;;;5050101;28;20017;-65
2024/03/07 02:43:44;;;;;;;61.50;42.05;;;18.70;78.50;;;;;;5032864;28;20029;-64
2024/03/07 02:46:11;;;;;;;62.25;41.17;;;18.80;78.60;;;;;;5050596;28;20028;-64
2024/03/07 02:48:38;;;;;;;61.33;39.88;;;18.70;78.70;;;;;;5050430;28;20028;-63
2024/03/07 02:51:05;;;;;;;62.63;40.92;;;18.70;78.70;;;;;;5049628;28;20091;-63
2024/03/07 02:53:32;;;;;;;56.22;39.15;;;18.70;78.70;;;;;;5050272;28;20508;-63
2024/03/07 02:55:58;;;;;;;57.72;39.42;;;18.70;78.60;;;;;;5050287;28;20481;-64
2024/03/07 02:58:24;;;;;;;56.70;38.78;;;18.70;78.70;;;;;;5050241;28;20507;-64
2024/03/07 03:00:58;;;;;;;59.70;40.35;;;18.70;78.70;;;;;;5049768;28;20029;-64
2024/03/07 03:03:24;;;;;;;54.97;38.83;;;18.80;78.70;;;;;;5043458;28;20053;-64
2024/03/07 03:05:50;;;;;;;58.50;38.45;;;18.70;78.80;;;;;;5050517;28;20067;-64
2024/03/07 03:08:15;;;;;;;53.00;37.60;;;18.70;78.70;;;;;;5050629;28;20087;-64
2024/03/07 03:10:41;;;;;;;64.90;40.17;;;18.70;78.70;;;;;;5049574;28;20127;-61
2024/03/07 03:13:08;;;;;;;56.35;37.25;;;18.80;78.70;;;;;;5050313;28;20040;-63
2024/03/07 03:15:34;;;;;;;53.22;38.10;;;18.80;78.80;;;;;;5050184;28;20090;-63
2024/03/07 03:18:00;;;;;;;55.38;38.95;;;18.70;78.70;;;;;;5050242;28;20323;-63
2024/03/07 03:20:33;;;;;;;54.47;36.97;;;18.70;78.70;;;;;;5051208;28;20100;-63
2024/03/07 03:22:59;;;;;;;53.55;37.28;;;18.70;78.70;;;;;;5053752;28;20477;-64
2024/03/07 03:25:25;;;;;;;56.28;36.00;;;18.70;78.70;;;;;;5049905;28;20035;-64
2024/03/07 03:27:52;;;;;;;47.50;35.65;;;18.70;78.60;;;;;;5053960;28;20040;-61
2024/03/07 03:30:18;;;;;;;52.38;35.28;;;18.70;78.60;;;;;;5053753;28;20017;-65
2024/03/07 03:32:50;;;;;;;53.55;35.13;;;18.70;78.60;;;;;;5053163;28;20075;-64
2024/03/07 03:35:16;;;;;;;53.03;36.28;;;18.70;78.70;;;;;;5053491;28;20392;-65
2024/03/07 03:37:45;;;;;;;50.53;33.67;;;18.70;78.60;;;;;;5053794;28;20032;-64
2024/03/07 03:40:12;;;;;;;53.67;35.80;;;18.70;78.60;;;;;;5053713;28;20029;-65
2024/03/07 03:42:39;;;;;;;52.78;35.70;;;18.70;78.70;;;;;;5052869;28;20024;-65
2024/03/07 03:45:07;;;;;;;47.53;33.17;;;18.70;78.60;;;;;;5053641;28;20029;-65
2024/03/07 03:47:35;;;;;;;49.17;33.42;;;18.70;78.70;;;;;;5053507;28;20400;-64
2024/03/07 03:50:08;;;;;;;49.55;34.13;;;18.70;78.70;;;;;;5053533;28;20055;-64
2024/03/07 03:52:37;;;;;;;50.33;35.00;;;18.70;78.60;;;;;;5052854;28;20060;-65
2024/03/07 03:55:09;;;;;;;49.03;33.58;;;18.70;78.60;;;;;;5053490;28;20511;-65
2024/03/07 03:57:37;;;;;;;45.47;32.58;;;18.70;78.60;;;;;;5053677;28;20669;-65
2024/03/07 04:00:09;;;;;;;46.97;33.08;;;18.70;78.70;;;;;;5052872;28;20032;-64
2024/03/07 04:02:36;;;;;;;45.65;31.95;;;18.70;78.60;;;;;;5052910;28;20630;-63
2024/03/07 04:05:03;;;;;;;44.15;32.15;;;18.70;78.60;;;;;;5053399;28;20029;-64
2024/03/07 04:07:30;;;;;;;47.63;31.95;;;18.70;78.70;;;;;;5053371;28;20024;-65
2024/03/07 04:09:57;;;;;;;43.33;30.58;;;18.70;78.70;;;;;;5051336;28;20037;-64
2024/03/07 04:12:25;;;;;;;45.15;32.45;;;18.70;78.80;;;;;;5052619;28;20043;-63
2024/03/07 04:14:51;;;;;;;43.53;30.85;;;18.70;78.80;;;;;;5052960;28;20095;-61
2024/03/07 04:17:16;;;;;;;45.15;31.85;;;18.70;78.90;;;;;;5053328;28;20476;-65
2024/03/07 04:19:43;;;;;;;44.70;31.23;;;18.70;78.80;;;;;;5053006;28;20021;-65
2024/03/07 04:22:09;;;;;;;43.20;29.48;;;18.70;78.90;;;;;;5052103;28;20041;-65
2024/03/07 04:24:35;;;;;;;45.38;29.67;;;18.70;78.90;;;;;;5052607;28;20067;-65
2024/03/07 04:27:05;;;;;;;46.70;31.23;;;18.70;79.10;;;;;;5052639;28;20116;-65
2024/03/07 04:29:34;;;;;;;45.15;30.38;;;18.70;79.00;;;;;;5052911;28;20025;-65
2024/03/07 04:32:01;;;;;;;44.65;29.67;;;18.70;79.00;;;;;;5050839;28;20025;-66
2024/03/07 04:34:30;;;;;;;42.50;29.63;;;18.70;79.00;;;;;;5052662;28;20490;-63
2024/03/07 04:36:58;;;;;;;43.28;29.90;;;18.70;79.00;;;;;;5052639;28;20025;-65
2024/03/07 04:39:33;;;;;;;46.63;29.80;;;18.70;79.20;;;;;;5052787;28;20399;-66
2024/03/07 04:42:01;;;;;;;44.15;28.30;;;18.70;79.20;;;;;;5051666;28;20037;-66
2024/03/07 04:44:30;;;;;;;43.67;28.63;;;18.70;79.10;;;;;;5052460;28;20043;-63
2024/03/07 04:47:00;;;;;;;46.97;28.90;;;18.70;79.10;;;;;;5052517;28;20037;-66
2024/03/07 04:49:28;;;;;;;41.33;28.65;;;18.70;79.10;;;;;;5052735;28;20017;-66
2024/03/07 04:51:55;;;;;;;41.42;27.67;;;18.70;79.20;;;;;;5051520;28;20040;-65
2024/03/07 04:54:22;;;;;;;41.42;27.40;;;18.70;79.10;;;;;;5052227;28;20029;-64
2024/03/07 04:56:49;;;;;;;40.42;26.52;;;18.70;79.10;;;;;;5052207;28;20029;-66
2024/03/07 04:59:16;;;;;;;38.42;27.17;;;18.70;79.10;;;;;;5052288;28;20017;-66
2024/03/07 05:01:43;;;;;;;37.83;26.60;;;18.70;79.10;;;;;;5051557;28;20036;-66
2024/03/07 05:04:09;;;;;;;38.80;25.75;;;18.70;79.00;;;;;;5052167;28;20017;-66
2024/03/07 05:06:35;;;;;;;38.28;25.75;;;18.70;79.00;;;;;;5051964;28;20021;-63
2024/03/07 05:09:05;;;;;;;39.33;25.17;;;18.70;79.00;;;;;;5052079;28;20032;-64
2024/03/07 05:11:34;;;;;;;38.45;25.10;;;18.70;79.10;;;;;;5051283;28;20059;-63
2024/03/07 05:14:00;;;;;;;46.75;25.73;;;18.70;79.10;;;;;;5051742;28;20036;-65
2024/03/07 05:16:29;;;;;;;44.78;26.15;;;18.70;79.30;;;;;;5051498;28;20021;-63
2024/03/07 05:18:59;;;;;;;42.17;25.80;;;18.70;79.30;;;;;;5051866;28;20027;-64
2024/03/07 05:21:41;;;;;;;36.25;24.75;;;18.70;79.30;;;;;;5050857;28;20102;-66
2024/03/07 05:24:08;;;;;;;48.50;25.50;;;18.70;79.10;;;;;;5051169;28;20021;-66
2024/03/07 05:26:37;;;;;;;41.40;25.60;;;18.70;79.20;;;;;;5051579;28;20028;-66
2024/03/07 05:29:10;;;;;;;43.20;24.83;;;18.70;79.20;;;;;;5051769;28;20155;-66
2024/03/07 05:31:37;;;;;;;41.30;23.65;;;18.70;79.20;;;;;;5050792;28;20045;-66
2024/03/07 05:34:04;;;;;;;36.75;23.20;;;18.70;79.20;;;;;;5051506;28;20029;-64
2024/03/07 05:36:33;;;;;;;95.20;28.50;;;18.70;79.10;;;;;;5051194;28;20104;-64
2024/03/07 05:38:59;;;;;;;46.10;24.38;;;18.70;79.50;;;;;;5051062;28;20040;-65
2024/03/07 05:41:28;;;;;;;49.13;22.77;;;18.70;79.40;;;;;;5049875;28;20067;-65
2024/03/07 05:43:54;;;;;;;51.35;24.42;;;18.70;79.20;;;;;;5050512;28;20052;-64
2024/03/07 05:46:20;;;;;;;55.08;25.30;;;18.70;79.20;;;;;;5050707;28;20070;-67
2024/03/07 05:48:49;;;;;;;48.20;24.65;;;18.70;79.30;;;;;;5050989;28;20109;-67
2024/03/07 05:51:15;;;;;;;38.05;22.85;;;18.70;79.10;;;;;;5049812;28;20025;-65
2024/03/07 05:53:41;;;;;;;32.97;22.48;;;18.80;79.00;;;;;;5050635;28;20052;-64
2024/03/07 05:56:08;;;;;;;26.95;22.83;;;17.40;57.60;;;;;;5050422;28;20090;-64
2024/03/07 05:58:33;;;;;;;29.17;23.00;;;15.80;56.60;;;;;;5050157;28;20103;-64
2024/03/07 06:00:59;;;;;;;32.03;22.25;;;14.80;55.80;;;;;;5049561;28;20396;-64
2024/03/07 06:03:25;;;;;;;26.35;22.52;;;14.10;56.70;;;;;;5050570;28;20021;-63
2024/03/07 06:05:51;;;;;;;28.50;22.98;;;13.80;57.80;;;;;;5050501;28;20036;-65
2024/03/07 06:08:21;;;;;;;33.97;22.70;;;13.60;57.10;;;;;;5042424;28;20025;-64
2024/03/07 06:10:47;;;;;;;28.63;22.58;;;13.50;58.00;;;;;;5049219;28;20032;-62
2024/03/07 06:13:15;;;;;;;31.77;22.42;;;13.30;57.60;;;;;;5050332;28;20104;-63
2024/03/07 06:15:43;;;;;;;29.90;21.90;;;13.20;57.10;;;;;;5050000;28;20519;-65
2024/03/07 06:18:10;;;;;;;28.08;21.17;;;12.90;57.50;;;;;;5050032;28;20021;-63
2024/03/07 06:20:37;;;;;;;26.27;21.13;;;12.80;57.60;;;;;;5049715;28;20029;-62
2024/03/07 06:23:06;;;;;;;29.63;21.70;;;12.50;58.30;;;;;;5050167;28;20052;-63
2024/03/07 06:25:50;;;;;;;26.33;21.42;;;12.50;58.90;;;;;;5050320;28;20029;-63
2024/03/07 06:28:16;;;;;;;28.45;21.45;;;12.30;56.50;;;;;;5049598;28;20028;-62
2024/03/07 06:30:44;;;;;;;29.17;21.35;;;11.90;57.50;;;;;;5048844;28;20123;-60
2024/03/07 06:33:11;;;;;;;37.63;21.52;;;11.80;57.90;;;;;;5049583;28;20055;-62
2024/03/07 06:35:38;;;;;;;33.30;19.95;;;12.60;66.70;;;;;;5049656;28;20425;-64
2024/03/07 06:38:05;;;;;;;35.50;20.00;;;13.30;73.80;;;;;;5049853;28;20037;-63
2024/03/07 06:40:32;;;;;;;31.85;18.52;;;13.90;75.30;;;;;;5048918;28;20013;-62
2024/03/07 06:42:58;;;;;;;38.30;18.65;;;14.30;75.20;;;;;;5049473;28;20025;-64
2024/03/07 06:45:24;;;;;;;50.13;18.65;;;14.70;74.90;;;;;;5049672;28;20028;-65
2024/03/07 06:47:52;;;;;;;36.75;18.55;;;15.00;74.80;;;;;;5049702;28;20048;-63
2024/03/07 06:50:19;;;;;;;38.97;18.27;;;15.30;74.70;;;;;;5041250;28;20054;-64
2024/03/07 06:52:46;;;;;;;49.47;19.05;;;15.50;74.40;;;;;;5048470;28;20113;-64
2024/03/07 06:55:19;;;;;;;39.50;17.17;;;15.80;74.40;;;;;;5050578;28;20025;-64
2024/03/07 06:57:46;;;;;;;34.17;16.58;;;15.90;74.40;;;;;;5053342;28;20094;-63
2024/03/07 07:00:14;;;;;;;26.75;15.52;;;16.10;74.30;;;;;;5053074;28;20520;-63
2024/03/07 07:02:40;;;;;;;34.22;16.75;;;16.20;74.40;;;;;;5052546;28;20029;-61
2024/03/07 07:05:10;;;;;;;32.13;15.02;;;16.40;74.30;;;;;;5053214;28;20037;-64
2024/03/07 07:07:41;;;;;;;29.23;15.43;;;16.50;74.10;;;;;;5052944;28;20029;-63
2024/03/07 07:10:09;;;;;;;33.67;15.70;;;16.60;74.40;;;;;;5053060;28;20024;-64
2024/03/07 07:12:38;;;;;;;31.95;15.90;;;16.70;74.40;;;;;;5052220;28;20029;-63
2024/03/07 07:15:04;;;;;;;38.42;16.73;;;16.80;74.50;;;;;;5052174;28;20028;-64
2024/03/07 07:17:30;;;;;;;30.60;21.00;;;16.90;74.50;;;;;;5053407;28;20096;-65
2024/03/07 07:19:59;;;;;;;27.42;20.80;;;16.70;60.00;;;;;;5034772;28;20117;-64
2024/03/07 07:22:26;;;;;;;29.17;21.35;;;15.90;53.30;;;;;;5052343;28;20481;-64
2024/03/07 07:24:51;;;;;;;26.48;21.88;;;15.90;53.10;;;;;;5052626;28;20104;-65
2024/03/07 07:27:18;;;;;;;27.15;20.05;;;15.50;47.80;;;;;;5043110;28;20101;-65
2024/03/07 07:29:44;;;;;;;27.65;20.60;;;14.60;51.60;;;;;;5052502;28;20032;-62
2024/03/07 07:32:12;;;;;;;24.27;18.15;;;14.70;50.40;;;;;;5052701;28;20029;-63
2024/03/07 07:34:38;;;;;;;27.10;18.60;;;14.50;46.90;;;;;;5052608;28;20043;-63
2024/03/07 07:37:04;;;;;;;22.83;18.65;;;14.30;48.40;;;;;;5052114;28;20025;-64
2024/03/07 07:39:31;;;;;;;26.30;16.52;;;14.00;52.20;;;;;;5053057;28;20022;-63
2024/03/07 07:41:57;;;;;;;20.50;16.40;;;14.50;54.60;;;;;;5052283;28;20017;-64
2024/03/07 07:44:22;;;;;;;20.95;16.10;;;14.90;56.70;;;;;;5052963;28;20223;-64
2024/03/07 07:46:49;;;;;;;22.13;15.88;;;15.20;58.90;;;;;;5053092;28;20063;-63
2024/03/07 07:49:15;;;;;;;21.20;16.35;;;15.40;60.70;;;;;;5053281;28;20047;-63
2024/03/07 07:51:41;;;;;;;21.15;14.90;;;15.60;61.90;;;;;;5051596;28;20033;-63
2024/03/07 07:54:09;;;;;;;19.35;14.48;;;15.80;62.60;;;;;;5052608;28;20028;-64
2024/03/07 07:56:35;;;;;;;19.60;14.48;;;16.00;63.20;;;;;;5052502;28;20021;-63
2024/03/07 07:59:01;;;;;;;18.52;13.98;;;16.10;63.50;;;;;;5052879;28;20443;-64
2024/03/07 08:01:27;;;;;;;18.08;13.68;;;16.30;63.80;;;;;;5052148;28;20025;-63
2024/03/07 08:03:54;;;;;;;17.27;13.48;;;16.40;64.00;;;;;;5052731;28;20025;-64
2024/03/07 08:06:20;;;;;;;17.17;12.75;;;16.50;64.10;;;;;;5052772;28;20112;-63
2024/03/07 08:08:50;;;;;;;17.35;13.25;;;16.60;64.10;;;;;;5052985;28;20100;-61
2024/03/07 08:11:15;;;;;;;14.80;11.73;;;16.70;64.20;;;;;;5052099;28;20021;-63
2024/03/07 08:13:41;;;;;;;18.40;13.43;;;16.80;64.20;;;;;;5053137;28;20036;-63
2024/03/07 08:16:06;;;;;;;14.77;11.90;;;16.80;64.20;;;;;;5053263;28;20025;-64
2024/03/07 08:18:32;;;;;;;15.32;11.70;;;16.90;64.20;;;;;;5036654;28;20025;-63
2024/03/07 08:20:58;;;;;;;13.80;11.50;;;17.00;64.20;;;;;;5054468;28;20074;-62
2024/03/07 08:23:29;;;;;;;13.23;10.70;;;17.00;64.20;;;;;;5056355;28;20032;-64
2024/03/07 08:25:55;;;;;;;15.68;11.55;;;17.00;64.10;;;;;;5056293;28;20025;-64
2024/03/07 08:28:20;;;;;;;16.20;11.60;;;17.10;64.20;;;;;;5056632;28;20372;-64
2024/03/07 08:30:46;;;;;;;14.20;10.95;;;17.20;64.20;;;;;;5055627;28;20028;-63
2024/03/07 08:33:13;;;;;;;12.25;10.18;;;17.20;64.30;;;;;;5054596;28;20031;-63
2024/03/07 08:35:38;;;;;;;13.35;11.18;;;17.30;64.20;;;;;;5052656;28;20056;-63
2024/03/07 08:38:04;;;;;;;13.13;10.05;;;17.40;64.20;;;;;;5052638;28;20457;-64
2024/03/07 08:40:32;;;;;;;13.18;10.60;;;17.40;64.20;;;;;;5052021;28;20028;-64
2024/03/07 08:42:58;;;;;;;12.10;9.82;;;17.50;64.30;;;;;;5051981;28;20392;-64
2024/03/07 08:45:24;;;;;;;12.75;9.98;;;17.50;64.30;;;;;;5052115;28;20477;-63
2024/03/07 08:47:52;;;;;;;13.30;10.30;;;17.50;64.30;;;;;;5034188;28;20021;-63
2024/03/07 08:50:18;;;;;;;11.85;9.88;;;17.50;64.40;;;;;;5051937;28;20086;-64
2024/03/07 08:52:45;;;;;;;14.23;10.27;;;17.60;64.40;;;;;;5051577;28;20025;-64
2024/03/07 08:55:14;;;;;;;12.00;9.93;;;17.60;64.40;;;;;;5051823;28;20519;-64
2024/03/07 08:57:40;;;;;;;12.10;9.88;;;17.70;64.50;;;;;;5051969;28;20032;-64
2024/03/07 09:03:03;;;;;;;10.68;9.50;;;17.70;64.50;;;;;;5038093;28;20489;-63
2024/03/07 09:05:33;;;;;;;10.30;8.70;;;17.70;64.50;;;;;;5051743;28;20546;-63
2024/03/07 09:07:59;;;;;;;11.25;9.10;;;17.70;64.50;;;;;;5051767;28;20033;-64
2024/03/07 09:10:25;;;;;;;12.02;9.70;;;17.80;64.60;;;;;;5051124;28;20032;-63
2024/03/07 09:12:51;;;;;;;12.43;9.85;;;17.80;64.70;;;;;;5051199;28;20109;-63
2024/03/07 09:15:18;;;;;;;11.52;9.40;;;17.80;64.70;;;;;;5051535;28;20052;-64
2024/03/07 09:17:45;;;;;;;11.50;9.70;;;17.80;64.80;;;;;;5051123;28;20480;-64
2024/03/07 09:20:14;;;;;;;10.90;8.93;;;17.80;64.80;;;;;;5051081;28;20131;-64
2024/03/07 09:22:43;;;;;;;10.32;8.98;;;17.80;64.90;;;;;;5051068;28;20044;-64
2024/03/07 09:25:12;;;;;;;10.48;8.82;;;17.90;64.90;;;;;;5051271;28;20041;-64
2024/03/07 09:27:40;;;;;;;11.60;9.00;;;17.80;64.90;;;;;;5041754;28;20091;-64
2024/03/07 09:30:11;;;;;;;13.70;9.82;;;17.90;65.00;;;;;;5031117;28;20489;-64
2024/03/07 09:32:38;;;;;;;11.48;9.10;;;17.90;65.10;;;;;;5030899;28;20037;-64
2024/03/07 09:35:07;;;;;;;10.15;8.77;;;17.90;65.10;;;;;;5031268;28;20059;-65
2024/03/07 09:37:32;;;;;;;11.85;9.48;;;17.90;65.10;;;;;;5031426;28;20032;-64
2024/03/07 09:39:58;;;;;;;11.98;9.20;;;17.90;65.20;;;;;;5030959;28;20022;-64
2024/03/07 09:42:27;;;;;;;10.15;9.00;;;17.90;65.20;;;;;;5030801;28;20064;-65
2024/03/07 09:44:54;;;;;;;11.18;9.63;;;17.90;65.20;;;;;;5031211;28;20439;-64
2024/03/07 09:47:20;;;;;;;10.65;8.43;;;18.00;65.20;;;;;;5031069;28;20056;-64
2024/03/07 09:49:46;;;;;;;11.88;8.80;;;17.90;65.30;;;;;;5030801;28;20477;-63
2024/03/07 09:52:14;;;;;;;11.80;8.85;;;17.90;65.30;;;;;;5030262;28;20063;-64
2024/03/07 09:54:44;;;;;;;11.38;8.00;;;17.90;65.30;;;;;;5030865;28;20104;-64
2024/03/07 09:57:10;;;;;;;10.18;8.25;;;17.90;65.40;;;;;;5029745;28;20105;-64
2024/03/07 09:59:39;;;;;;;10.23;8.45;;;18.00;65.40;;;;;;5031046;28;20017;-64
2024/03/07 10:02:07;;;;;;;8.80;7.90;;;18.00;65.50;;;;;;5029853;28;20550;-63
2024/03/07 10:04:50;;;;;;;8.98;8.02;;;18.00;65.50;;;;;;5031024;28;20025;-65
2024/03/07 10:07:18;;;;;;;10.68;8.52;;;18.00;65.50;;;;;;5030946;28;20100;-63
2024/03/07 10:09:44;;;;;;;9.73;8.43;;;18.00;65.50;;;;;;5030782;28;20401;-63
2024/03/07 10:12:12;;;;;;;8.68;7.78;;;18.00;65.60;;;;;;5029652;28;20025;-64
2024/03/07 10:14:56;;;;;;;9.40;8.02;;;18.00;65.60;;;;;;5030984;28;20017;-65
2024/03/07 10:17:26;;;;;;;10.65;8.48;;;18.00;65.60;;;;;;5031048;28;20033;-64
2024/03/07 10:19:53;;;;;;;10.43;7.85;;;18.00;65.60;;;;;;5036090;28;20025;-61
2024/03/07 10:22:20;;;;;;;9.43;7.55;;;18.00;65.70;;;;;;5048250;28;20416;-64
2024/03/07 10:24:56;;;;;;;8.88;7.60;;;18.00;65.70;;;;;;5050230;28;20021;-65
2024/03/07 10:27:22;;;;;;;9.13;7.82;;;18.00;65.80;;;;;;5049343;28;20064;-65
2024/03/07 10:29:50;;;;;;;8.85;7.90;;;18.00;65.80;;;;;;5049428;28;20025;-63
2024/03/07 10:32:25;;;;;;;10.27;8.00;;;18.00;65.80;;;;;;5050055;28;20021;-64
2024/03/07 10:34:51;;;;;;;8.70;7.53;;;18.00;65.80;;;;;;5050073;28;20440;-64
2024/03/07 10:37:20;;;;;;;8.75;7.85;;;18.00;65.80;;;;;;5049957;28;20028;-64
2024/03/07 10:39:49;;;;;;;8.73;7.80;;;18.00;65.90;;;;;;5050093;28;20041;-64
2024/03/07 10:42:16;;;;;;;8.10;7.30;;;18.10;65.80;;;;;;5049437;28;20427;-64
2024/03/07 10:44:47;;;;;;;9.32;7.60;;;18.10;65.80;;;;;;5049946;28;20017;-64
2024/03/07 10:47:20;;;;;;;8.32;7.40;;;18.10;65.80;;;;;;5050000;28;20029;-63
2024/03/07 10:50:17;;;;;;;8.85;7.53;;;18.10;65.80;;;;;;5049622;28;20074;-64
2024/03/07 10:53:07;;;;;;;8.90;7.45;;;18.10;65.80;;;;;;5049422;28;20025;-64
2024/03/07 10:55:40;;;;;;;8.48;7.05;;;18.10;65.80;;;;;;5011552;28;20043;-64
2024/03/07 10:58:21;;;;;;;8.52;7.40;;;18.10;65.80;;;;;;5049773;28;20029;-64
2024/03/07 11:00:47;;;;;;;8.05;7.07;;;18.20;65.90;;;;;;5049347;28;20033;-65
2024/03/07 11:03:14;;;;;;;9.32;7.22;;;18.10;65.90;;;;;;5049668;28;20083;-64
2024/03/07 11:05:43;;;;;;;8.57;7.43;;;18.20;65.80;;;;;;5049923;28;20497;-64
2024/03/07 11:08:13;;;;;;;8.27;7.15;;;18.20;65.90;;;;;;5050034;28;20025;-65
2024/03/07 11:10:39;;;;;;;7.32;6.63;;;18.20;65.90;;;;;;5049388;28;20519;-64
2024/03/07 11:13:12;;;;;;;7.95;7.13;;;18.20;65.90;;;;;;5051298;28;20029;-64
2024/03/07 11:15:41;;;;;;;8.05;6.18;;;18.20;65.90;;;;;;5048508;28;20601;-64
2024/03/07 11:18:08;;;;;;;7.13;6.43;;;18.10;65.90;;;;;;5049647;28;20029;-64
2024/03/07 11:20:40;;;;;;;7.43;6.72;;;18.20;66.00;;;;;;5049704;28;20033;-65
2024/03/07 11:23:38;;;;;;;7.32;6.63;;;18.20;66.00;;;;;;5032905;28;20017;-64
2024/03/07 11:26:08;;;;;;;7.60;6.70;;;18.20;66.00;;;;;;5050949;28;20057;-63
2024/03/07 11:28:37;;;;;;;7.63;6.85;;;18.20;66.00;;;;;;5048022;28;24072;-63
2024/03/07 11:31:26;;;;;;;7.90;6.55;;;18.20;66.00;;;;;;5049569;28;20029;-63
2024/03/07 11:34:14;;;;;;;7.78;6.68;;;18.20;66.10;;;;;;5050536;28;20546;-63
2024/03/07 11:36:49;;;;;;;8.38;6.90;;;18.20;66.10;;;;;;5050343;28;20428;-63
2024/03/07 11:39:47;;;;;;;7.38;6.60;;;18.20;66.10;;;;;;5050378;28;20470;-62
2024/03/07 11:42:31;;;;;;;8.38;6.60;;;18.20;66.20;;;;;;5052798;28;20048;-62
2024/03/07 11:44:58;;;;;;;8.45;7.22;;;18.20;66.20;;;;;;5054139;28;20112;-63
2024/03/07 11:47:24;;;;;;;8.43;6.78;;;18.20;66.20;;;;;;5054063;28;20031;-63
2024/03/07 11:49:52;;;;;;;8.75;6.95;;;18.20;66.30;;;;;;5054209;28;20025;-62
2024/03/07 11:52:18;;;;;;;6.63;6.00;;;18.20;66.30;;;;;;5053438;28;20064;-63
2024/03/07 11:54:47;;;;;;;7.10;6.40;;;18.20;66.30;;;;;;5054255;28;20108;-62
2024/03/07 11:57:19;;;;;;;7.05;5.97;;;18.20;66.40;;;;;;5053978;28;20504;-62
2024/03/07 11:59:47;;;;;;;7.60;6.25;;;18.20;66.40;;;;;;5053791;28;20082;-62
2024/03/07 12:02:15;;;;;;;7.35;6.55;;;18.20;66.40;;;;;;5053573;28;20039;-63
2024/03/07 12:04:44;;;;;;;7.70;6.68;;;18.10;66.50;;;;;;5036228;28;20025;-63
2024/03/07 12:07:10;;;;;;;6.95;6.25;;;18.10;66.50;;;;;;5053980;28;20029;-63
2024/03/07 12:09:39;;;;;;;7.70;6.43;;;18.20;66.60;;;;;;5053909;28;20028;-63
2024/03/07 12:12:06;;;;;;;7.07;6.38;;;18.20;66.60;;;;;;5053097;28;20025;-63
2024/03/07 12:14:33;;;;;;;8.05;6.32;;;18.10;66.60;;;;;;5053884;28;20108;-63
2024/03/07 12:17:01;;;;;;;6.75;6.03;;;18.10;66.60;;;;;;5054859;28;20028;-63
2024/03/07 12:19:27;;;;;;;8.07;6.88;;;18.20;66.70;;;;;;5055742;28;20048;-64
2024/03/07 12:24:22;;;;;;;7.78;6.00;;;18.20;66.70;;;;;;5029982;28;20049;-60
2024/03/07 12:26:48;;;;;;;7.45;6.40;;;18.20;66.70;;;;;;5033561;28;20056;-60
2024/03/07 12:29:13;;;;;;;6.72;5.78;;;18.20;66.70;;;;;;5033638;28;20462;-60
2024/03/07 12:31:39;;;;;;;6.75;6.05;;;18.20;66.60;;;;;;5032892;28;20021;-60
2024/03/07 12:34:09;;;;;;;6.88;6.18;;;18.30;66.60;;;;;;5033207;28;20547;-60
2024/03/07 12:36:35;;;;;;;6.30;5.70;;;18.20;66.60;;;;;;5033050;28;20033;-61
2024/03/07 12:39:09;;;;;;;6.53;5.93;;;18.20;66.50;;;;;;5030893;28;20515;-61
2024/03/07 12:41:35;;;;;;;7.20;6.50;;;18.30;66.60;;;;;;5032744;28;20227;-61